Airfield :
LOGIN :

Register | Disclaimer

   EN    FR    IT 

 










Legend :    VFR   Marginal VFR   IFR   Intensive IFR   Very Intensive IFR
Visi :
Ceiling :
>= 8 km
>= 3000ft
5 to 8 km
1000 to 3000 ft
1500m to 5 km
500 to 1000 ft
800 to 1500m
200 to 500 ft
< 800m
< 200 ft
Symbols :   Thunderstorms  Fog  Heavy snow  Heavy precipitations  Wind > 20 kt
SIGMETs :     Misc.  Thunderstorms  Icing  Turbulence  Mountain Waves  Volcanic Ashes







- Airport Elevation : 28 ft
- IATA code : SOZ
- Download approach charts


LFKS - Solenzara

CURRENT METAR :
  • 231400Z AUTO 17006KT 9999 // OVC035 17/12 Q1016

EXPIRED METARs :
  • 231330Z AUTO 16006KT 120V190 9999 // FEW028 BKN035 BKN092 16/13 Q1016
  • 231300Z AUTO 17010KT 9999 // SCT033 OVC090 16/13 Q1016
  • 231230Z AUTO 16009KT 9999 // FEW011 OVC034 16/13 Q1017
  • 231200Z AUTO 16009KT 9999 // BKN011 OVC035 16/13 Q1017
  • 231130Z AUTO 15008KT 120V180 9999 // OVC035 17/13 Q1016

TAF TAF LFKS
Valid from the 23 at 09:00 until the 24 at 09:00 UTC


230800Z 2309/2409 VRB03KT 9999 BKN014 BKN030
BECMG 2309/2311 13008KT SCT020 BKN040
No reported NOTAMs for that airfield.
3 SIGMETs reported for the Marseille FIR (LFMM) :
 
Embedded thunderstorms
LFMM SIGMET 12 VALID 231400/231600 LFPW
LFMM MARSEILLE FIR/UIR EMBD TS OBS WI N4315 E00230 - N4545 E00300 - N4615 E00430 - N4415 E00445 - N4215 E00315 TOP FL320 MOV N 15KT NC=
Severe turbulence
LFMM SIGMET 11 VALID 231300/231600 LFPW
LFMM MARSEILLE FIR/UIR SEV TURB FCST WI N4400 E00245 - N4530 E00300 - N4600 E00345 - N4530 E00600 - N4400 E00545 SFC/FL060 STNR NC=
Embedded thunderstorms
LFMM SIGMET 10 VALID 231200/231400 LFPW
LFMM MARSEILLE FIR/UIR EMBD TS OBS WI N4330 E00245 - N4600 E00300 - N4615 E00430 - N4415 E00445 - N4230 E00315 TOP FL320 STNR NC=



MET'MAP, your aeronautical weather chart ! - Copyright ORBIFLY December 2007 - Disclaimer

ORBIFLY MET'MAP TEAM :

Programming & Development : Alexandra Zaïnal
Concept & Development : Baudouin d'Aumeries
Co-Development & Prog : Marc-Olivier Méhu
Technical & hardware support : Manuel Goepfert

Contact : metmap@orbifly.com




SOURCES & CREDITS :

   NOAA